ST2 weather

Montreal / Marina Venise
Quebec, Canada

Public forecast

Using degrees Celsius for public forecast. Weather courtesy of forecast.io.

METAR (pilot weather report)

Closest report is Montreal / Pierre Elliott Trudeau International Airport, 9.9 nm (18.2 km) S. Retrieved 2019/05/19 13:00 UTC (50 minutes ago):

CYUL 191300Z 04011KT 15SM FEW008 FEW045 OVC055 10/09 A2998 RMK SF1SC2SC6 SF TR SLP153

TAF (pilot weather forecast)

Closest forecast is Montreal / Pierre Elliott Trudeau International Airport, 9.9 nm (18.2 km) S. Retrieved 2019/05/19 12:42 UTC (1 hour ago):

TAF CYUL 191138Z 1912/2012 04010KT P6SM -RA OVC050 TEMPO 1912/1915 5SM -RA BR BKN015 OVC050 PROB30 1912/1913 21/2SM SHRA FM191500 04010KT P6SM SCT008 OVC015 TEMPO 1915/1920 SCT015 BKN040 PROB30 1915/1920 BKN008 FM192000 07010KT P6SM BKN020 TEMPO 1920/2001 SCT020 FM200100 08012KT P6SM OVC020 FM200500 14005KT 4SM SHRA BR OVC006 PROB30 2005/2008 VRB15G25KT 1SM TSRA BR VV004 FM200800 22012KT P6SM BKN020 BECMG 2010/2012 22015G25KT RMK NXT FCST BY 191500Z